sensor_id;sensor_type;location;lat;lon;timestamp;temperature;humidity
25688;DHT22;17407;51.120;3.702;2023-02-10T02:11:30;5.50;99.90
25688;DHT22;17407;51.120;3.702;2023-02-10T02:22:04;5.60;99.90
25688;DHT22;17407;51.120;3.702;2023-02-10T02:49:08;5.50;99.90
25688;DHT22;17407;51.120;3.702;2023-02-10T06:29:52;5.20;99.90
25688;DHT22;17407;51.120;3.702;2023-02-10T06:32:18;5.30;99.90
25688;DHT22;17407;51.120;3.702;2023-02-10T06:34:44;5.10;99.90
25688;DHT22;17407;51.120;3.702;2023-02-10T06:37:11;5.10;99.90
25688;DHT22;17407;51.120;3.702;2023-02-10T06:39:36;5.20;99.90
25688;DHT22;17407;51.120;3.702;2023-02-10T06:42:02;5.20;99.90
25688;DHT22;17407;51.120;3.702;2023-02-10T06:44:28;5.00;99.90
25688;DHT22;17407;51.120;3.702;2023-02-10T06:46:53;5.00;99.90
25688;DHT22;17407;51.120;3.702;2023-02-10T06:49:19;5.20;99.90
25688;DHT22;17407;51.120;3.702;2023-02-10T06:51:45;5.00;99.90
25688;DHT22;17407;51.120;3.702;2023-02-10T06:54:10;5.10;99.90
25688;DHT22;17407;51.120;3.702;2023-02-10T06:56:36;5.00;99.90
25688;DHT22;17407;51.120;3.702;2023-02-10T06:59:02;5.10;99.90
25688;DHT22;17407;51.120;3.702;2023-02-10T07:01:27;5.00;99.90
25688;DHT22;17407;51.120;3.702;2023-02-10T07:03:53;4.90;99.90
25688;DHT22;17407;51.120;3.702;2023-02-10T07:06:18;4.90;99.90
25688;DHT22;17407;51.120;3.702;2023-02-10T07:08:44;4.90;99.90
25688;DHT22;17407;51.120;3.702;2023-02-10T07:11:11;4.90;99.90
25688;DHT22;17407;51.120;3.702;2023-02-10T07:13:36;4.90;99.90
25688;DHT22;17407;51.120;3.702;2023-02-10T07:16:02;5.00;99.90
25688;DHT22;17407;51.120;3.702;2023-02-10T07:18:27;4.90;99.90
25688;DHT22;17407;51.120;3.702;2023-02-10T07:20:55;4.80;99.90
25688;DHT22;17407;51.120;3.702;2023-02-10T07:23:21;4.80;99.90
25688;DHT22;17407;51.120;3.702;2023-02-10T07:25:46;4.80;99.90
25688;DHT22;17407;51.120;3.702;2023-02-10T07:28:12;4.70;99.90
25688;DHT22;17407;51.120;3.702;2023-02-10T07:30:38;4.80;99.90
25688;DHT22;17407;51.120;3.702;2023-02-10T07:33:03;4.90;99.90
25688;DHT22;17407;51.120;3.702;2023-02-10T07:35:29;4.90;99.90
25688;DHT22;17407;51.120;3.702;2023-02-10T07:37:55;5.00;99.90
25688;DHT22;17407;51.120;3.702;2023-02-10T07:40:20;5.00;99.90
25688;DHT22;17407;51.120;3.702;2023-02-10T07:42:47;5.00;99.90
25688;DHT22;17407;51.120;3.702;2023-02-10T07:45:12;4.90;99.90
25688;DHT22;17407;51.120;3.702;2023-02-10T07:47:38;4.90;99.90
25688;DHT22;17407;51.120;3.702;2023-02-10T07:50:04;4.90;99.90
25688;DHT22;17407;51.120;3.702;2023-02-10T07:52:29;4.90;99.90
25688;DHT22;17407;51.120;3.702;2023-02-10T07:54:55;4.90;99.90
25688;DHT22;17407;51.120;3.702;2023-02-10T07:57:21;5.00;99.90
25688;DHT22;17407;51.120;3.702;2023-02-10T07:59:47;5.00;99.90
25688;DHT22;17407;51.120;3.702;2023-02-10T08:02:13;5.10;99.90
25688;DHT22;17407;51.120;3.702;2023-02-10T08:04:38;5.10;99.90
25688;DHT22;17407;51.120;3.702;2023-02-10T08:07:04;5.10;99.90
25688;DHT22;17407;51.120;3.702;2023-02-10T08:09:30;5.10;99.90
25688;DHT22;17407;51.120;3.702;2023-02-10T08:11:56;5.10;99.90
25688;DHT22;17407;51.120;3.702;2023-02-10T08:14:22;5.20;99.90
25688;DHT22;17407;51.120;3.702;2023-02-10T08:16:49;5.00;99.90
25688;DHT22;17407;51.120;3.702;2023-02-10T08:19:15;5.10;99.90
25688;DHT22;17407;51.120;3.702;2023-02-10T08:21:40;5.00;99.90
25688;DHT22;17407;51.120;3.702;2023-02-10T08:24:07;5.10;99.90
25688;DHT22;17407;51.120;3.702;2023-02-10T08:26:33;5.10;99.90
25688;DHT22;17407;51.120;3.702;2023-02-10T08:29:00;5.20;99.90
25688;DHT22;17407;51.120;3.702;2023-02-10T08:31:25;5.20;99.90
25688;DHT22;17407;51.120;3.702;2023-02-10T08:33:51;5.30;99.90
25688;DHT22;17407;51.120;3.702;2023-02-10T08:36:18;5.20;99.90
25688;DHT22;17407;51.120;3.702;2023-02-10T08:38:44;5.20;99.90
25688;DHT22;17407;51.120;3.702;2023-02-10T08:41:10;5.30;99.90
25688;DHT22;17407;51.120;3.702;2023-02-10T08:43:36;5.50;99.90
25688;DHT22;17407;51.120;3.702;2023-02-10T08:46:01;5.70;99.90
25688;DHT22;17407;51.120;3.702;2023-02-10T08:48:27;5.90;99.90
25688;DHT22;17407;51.120;3.702;2023-02-10T08:50:53;5.90;99.90
25688;DHT22;17407;51.120;3.702;2023-02-10T08:53:20;6.10;99.90
25688;DHT22;17407;51.120;3.702;2023-02-10T08:56:02;6.30;99.90
25688;DHT22;17407;51.120;3.702;2023-02-10T08:58:29;6.10;99.90
25688;DHT22;17407;51.120;3.702;2023-02-10T09:00:54;6.20;99.90
25688;DHT22;17407;51.120;3.702;2023-02-10T09:03:20;6.40;99.90
25688;DHT22;17407;51.120;3.702;2023-02-10T09:05:46;6.60;99.90
25688;DHT22;17407;51.120;3.702;2023-02-10T09:08:14;6.60;99.90
25688;DHT22;17407;51.120;3.702;2023-02-10T09:10:40;6.60;99.90
25688;DHT22;17407;51.120;3.702;2023-02-10T09:13:06;6.40;99.90
25688;DHT22;17407;51.120;3.702;2023-02-10T09:15:36;6.20;99.90
25688;DHT22;17407;51.120;3.702;2023-02-10T09:18:01;6.30;99.90
25688;DHT22;17407;51.120;3.702;2023-02-10T09:20:27;6.20;99.90
25688;DHT22;17407;51.120;3.702;2023-02-10T09:22:53;6.10;99.90
25688;DHT22;17407;51.120;3.702;2023-02-10T09:25:18;5.90;99.90
25688;DHT22;17407;51.120;3.702;2023-02-10T09:27:44;5.90;99.90
25688;DHT22;17407;51.120;3.702;2023-02-10T09:52:04;5.90;99.90
25688;DHT22;17407;51.120;3.702;2023-02-10T10:26:34;6.20;99.90
25688;DHT22;17407;51.120;3.702;2023-02-10T12:23:39;8.80;99.90
25688;DHT22;17407;51.120;3.702;2023-02-10T12:34:24;8.90;99.90
25688;DHT22;17407;51.120;3.702;2023-02-10T12:38:03;9.10;99.90
25688;DHT22;17407;51.120;3.702;2023-02-10T12:45:14;9.30;99.90
25688;DHT22;17407;51.120;3.702;2023-02-10T13:09:21;11.20;99.90
25688;DHT22;17407;51.120;3.702;2023-02-10T15:36:10;12.50;99.90
